createdAt,value
2016-04-05T00:00:07.949Z,0
2016-04-05T00:01:07.936Z,0
2016-04-05T00:02:07.923Z,0
2016-04-05T00:03:07.894Z,0
2016-04-05T00:04:07.866Z,0
2016-04-05T00:05:07.853Z,0
2016-04-05T00:06:07.824Z,0
2016-04-05T00:07:07.875Z,0
2016-04-05T00:08:07.799Z,0
2016-04-05T00:09:07.755Z,0
2016-04-05T00:10:07.741Z,0
2016-04-05T00:11:07.729Z,0
2016-04-05T00:12:07.701Z,0
2016-04-05T00:13:07.671Z,0
2016-04-05T00:14:07.674Z,0
2016-04-05T00:15:07.645Z,0
2016-04-05T00:16:07.617Z,0
2016-04-05T00:17:07.589Z,0
2016-04-05T00:18:07.575Z,0
2016-04-05T00:19:07.548Z,0
2016-04-05T00:20:07.534Z,0
2016-04-05T00:21:07.506Z,0
2016-04-05T00:22:07.493Z,0
2016-04-05T00:23:07.464Z,0
2016-04-05T00:24:07.451Z,0
2016-04-05T00:25:07.438Z,0
2016-04-05T00:26:07.394Z,0
2016-04-05T00:27:07.381Z,0
2016-04-05T00:28:07.369Z,0
2016-04-05T00:29:07.340Z,0
2016-04-05T00:30:07.170Z,0
2016-04-05T00:31:07.298Z,0
2016-04-05T00:32:07.270Z,0
2016-04-05T00:33:07.258Z,0
2016-04-05T00:34:07.228Z,0
2016-04-05T00:35:07.200Z,0
2016-04-05T00:36:07.186Z,0
2016-04-05T00:37:07.174Z,0
2016-04-05T00:38:07.129Z,0
2016-04-05T00:39:07.116Z,0
2016-04-05T00:40:07.104Z,0
2016-04-05T00:41:07.107Z,0
2016-04-05T00:42:07.047Z,0
2016-04-05T00:43:07.034Z,0
2016-04-05T00:44:07.005Z,0
2016-04-05T00:45:06.992Z,0
2016-04-05T00:46:06.963Z,0
2016-04-05T00:47:06.951Z,0
2016-04-05T00:48:06.937Z,0
2016-04-05T00:49:06.940Z,0
2016-04-05T00:50:06.895Z,0
2016-04-05T00:51:06.867Z,0
2016-04-05T00:52:06.839Z,0
2016-04-05T00:53:06.810Z,0
2016-04-05T00:54:06.798Z,0
2016-04-05T00:55:06.784Z,0
2016-04-05T00:56:06.787Z,0
2016-04-05T00:57:06.743Z,0
2016-04-05T00:58:06.714Z,0
2016-04-05T00:59:06.670Z,0
2016-04-05T01:00:06.657Z,0
2016-04-05T01:01:06.644Z,0
2016-04-05T01:02:06.616Z,0
2016-04-05T01:03:06.603Z,0
2016-04-05T01:04:06.575Z,0
2016-04-05T01:05:06.578Z,0
2016-04-05T01:06:06.533Z,0
2016-04-05T01:07:06.520Z,0
2016-04-05T01:08:06.491Z,0
2016-04-05T01:09:06.479Z,0
2016-04-05T01:10:06.466Z,0
2016-04-05T01:11:06.437Z,0
2016-04-05T01:12:06.408Z,0
2016-04-05T01:13:06.379Z,0
2016-04-05T01:14:06.367Z,0
2016-04-05T01:15:06.338Z,0
2016-04-05T01:16:06.325Z,0
2016-04-05T01:17:05.578Z,0
2016-04-05T01:18:06.268Z,0
2016-04-05T01:19:06.256Z,0
2016-04-05T01:20:06.243Z,0
2016-04-05T01:21:06.214Z,0
2016-04-05T01:22:06.201Z,0
2016-04-05T01:23:06.172Z,0
2016-04-05T01:24:06.159Z,0
2016-04-05T01:25:06.131Z,0
2016-04-05T01:26:06.102Z,0
2016-04-05T01:27:06.073Z,0
2016-04-05T01:28:06.076Z,0
2016-04-05T01:29:06.032Z,0
2016-04-05T01:30:06.019Z,0
2016-04-05T01:31:06.006Z,0
2016-04-05T01:32:05.978Z,0
2016-04-05T01:33:05.950Z,0
2016-04-05T01:34:05.936Z,0
2016-04-05T01:35:05.908Z,0
2016-04-05T01:36:05.894Z,0
2016-04-05T01:37:05.866Z,0
2016-04-05T01:38:05.853Z,0
2016-04-05T01:39:05.824Z,0
2016-04-05T01:40:05.797Z,0
2016-04-05T01:41:05.783Z,0
2016-04-05T01:42:05.771Z,0
2016-04-05T01:43:05.742Z,0
2016-04-05T01:44:05.713Z,0
2016-04-05T01:45:05.685Z,0
2016-04-05T01:46:05.740Z,0
2016-04-05T01:47:05.655Z,0
2016-04-05T01:48:05.875Z,0
2016-04-05T01:49:05.660Z,0
2016-04-05T01:50:05.591Z,0
2016-04-05T01:51:05.562Z,0
2016-04-05T01:52:05.534Z,0
2016-04-05T01:53:05.521Z,0
2016-04-05T01:54:05.492Z,0
2016-04-05T01:55:05.480Z,0
2016-04-05T01:56:05.451Z,0
2016-04-05T01:57:05.423Z,0
2016-04-05T01:58:05.409Z,0
2016-04-05T01:59:05.381Z,0
2016-04-05T02:00:05.603Z,0
2016-04-05T02:01:05.356Z,0
2016-04-05T02:02:05.327Z,0
2016-04-05T02:03:05.314Z,0
2016-04-05T02:04:05.286Z,0
2016-04-05T02:05:05.257Z,0
2016-04-05T02:06:05.245Z,0
2016-04-05T02:07:05.216Z,0
2016-04-05T02:08:05.192Z,0
2016-04-05T02:09:05.180Z,0
2016-04-05T02:10:05.166Z,0
2016-04-05T02:11:05.122Z,0
2016-04-05T02:12:05.108Z,0
2016-04-05T02:13:05.096Z,0
2016-04-05T02:14:05.068Z,0
2016-04-05T02:15:05.054Z,0
2016-04-05T02:16:05.026Z,0
2016-04-05T02:17:04.996Z,0
2016-04-05T02:18:04.968Z,0
2016-04-05T02:19:04.956Z,0
2016-04-05T02:20:04.927Z,0
2016-04-05T02:21:04.915Z,0
2016-04-05T02:22:04.901Z,0
2016-04-05T02:23:04.873Z,0
2016-04-05T02:24:04.845Z,0
2016-04-05T02:25:04.831Z,0
2016-04-05T02:26:04.803Z,0
2016-04-05T02:27:04.789Z,0
2016-04-05T02:28:04.761Z,0
2016-04-05T02:29:04.733Z,0
2016-04-05T02:30:04.719Z,0
2016-04-05T02:31:04.692Z,0
2016-04-05T02:32:04.662Z,0
2016-04-05T02:33:04.650Z,0
2016-04-05T02:34:04.621Z,0
2016-04-05T02:35:04.608Z,0
2016-04-05T02:36:04.580Z,0
2016-04-05T02:37:04.567Z,0
2016-04-05T02:38:04.538Z,0
2016-04-05T02:39:04.525Z,0
2016-04-05T02:40:04.496Z,0
2016-04-05T02:41:04.468Z,0
2016-04-05T02:42:04.471Z,0
2016-04-05T02:43:04.426Z,0
2016-04-05T02:44:04.414Z,0
2016-04-05T02:45:04.400Z,0
2016-04-05T02:46:04.358Z,0
2016-04-05T02:47:04.317Z,0
2016-04-05T02:48:04.307Z,0
2016-04-05T02:49:04.250Z,0
2016-04-05T02:50:04.209Z,0
2016-04-05T02:51:04.208Z,0
2016-04-05T02:52:04.175Z,0
2016-04-05T02:53:04.141Z,0
2016-04-05T02:54:04.108Z,0
2016-04-05T02:55:04.092Z,0
2016-04-05T02:56:04.077Z,0
2016-04-05T02:57:04.047Z,0
2016-04-05T02:58:04.016Z,0
2016-04-05T02:59:04.002Z,0
2016-04-05T03:00:03.972Z,0
2016-04-05T03:01:03.958Z,0
2016-04-05T03:02:03.929Z,0
2016-04-05T03:03:03.931Z,0
2016-04-05T03:04:03.901Z,0
2016-04-05T03:05:03.872Z,0
2016-04-05T03:06:03.844Z,0
2016-04-05T03:07:03.830Z,0
2016-04-05T03:08:03.802Z,0
2016-04-05T03:09:03.774Z,0
2016-04-05T03:10:03.746Z,0
2016-04-05T03:11:03.733Z,0
2016-04-05T03:12:03.704Z,0
2016-04-05T03:13:03.691Z,0
2016-04-05T03:14:03.678Z,0
2016-04-05T03:15:03.727Z,0
2016-04-05T03:16:03.621Z,0
2016-04-05T03:17:03.608Z,0
2016-04-05T03:18:03.579Z,0
2016-04-05T03:19:03.551Z,0
2016-04-05T03:20:03.537Z,0
2016-04-05T03:21:03.509Z,0
2016-04-05T03:22:03.496Z,0
2016-04-05T03:23:03.484Z,0
2016-04-05T03:24:03.454Z,0
2016-04-05T03:25:03.442Z,0
2016-04-05T03:26:03.429Z,0
2016-04-05T03:27:03.401Z,0
2016-04-05T03:28:03.372Z,0
2016-04-05T03:29:03.359Z,0
2016-04-05T03:30:03.362Z,0
2016-04-05T03:31:03.303Z,0
2016-04-05T03:32:03.274Z,0
2016-04-05T03:33:03.261Z,0
2016-04-05T03:34:03.232Z,0
2016-04-05T03:35:03.220Z,0
2016-04-05T03:36:03.188Z,0
2016-04-05T03:37:03.175Z,0
2016-04-05T03:38:03.146Z,0
2016-04-05T03:39:03.119Z,0
2016-04-05T03:40:03.105Z,0
2016-04-05T03:41:03.077Z,0
2016-04-05T03:42:03.079Z,0
2016-04-05T03:43:03.050Z,0
2016-04-05T03:44:03.022Z,0
2016-04-05T03:45:03.056Z,0
2016-04-05T03:46:02.980Z,0
2016-04-05T03:47:02.952Z,0
2016-04-05T03:48:02.939Z,0
2016-04-05T03:49:02.911Z,0
2016-04-05T03:50:02.898Z,0
2016-04-05T03:51:02.869Z,0
2016-04-05T03:52:02.840Z,0
2016-04-05T03:53:02.827Z,0
2016-04-05T03:54:02.799Z,0
2016-04-05T03:55:02.771Z,0
2016-04-05T03:56:02.758Z,0
2016-04-05T03:57:02.745Z,0
2016-04-05T03:58:02.560Z,0
2016-04-05T03:59:02.703Z,0
2016-04-05T04:00:02.831Z,0
2016-04-05T04:01:02.661Z,0
2016-04-05T04:02:02.633Z,0
2016-04-05T04:03:02.620Z,0
2016-04-05T04:04:02.591Z,0
2016-04-05T04:05:02.422Z,0
2016-04-05T04:06:02.550Z,0
2016-04-05T04:07:02.537Z,0
2016-04-05T04:08:02.509Z,0
2016-04-05T04:09:02.480Z,0
2016-04-05T04:10:02.467Z,0
2016-04-05T04:11:02.439Z,0
2016-04-05T04:12:02.426Z,0
2016-04-05T04:13:02.397Z,0
2016-04-05T04:14:02.384Z,0
2016-04-05T04:15:02.402Z,0
2016-04-05T04:16:02.343Z,0
2016-04-05T04:17:02.314Z,0
2016-04-05T04:18:02.301Z,0
2016-04-05T04:19:02.272Z,0
2016-04-05T04:20:02.244Z,0
2016-04-05T04:21:02.231Z,0
2016-04-05T04:22:02.218Z,0
2016-04-05T04:23:02.189Z,0
2016-04-05T04:24:02.176Z,0
2016-04-05T04:25:02.148Z,0
2016-04-05T04:26:02.135Z,0
2016-04-05T04:27:02.107Z,0
2016-04-05T04:28:02.078Z,4
2016-04-05T04:29:02.065Z,4
2016-04-05T04:30:02.083Z,4
2016-04-05T04:31:02.023Z,4
2016-04-05T04:32:02.026Z,4
2016-04-05T04:33:01.982Z,4
2016-04-05T04:34:01.954Z,8
2016-04-05T04:35:01.940Z,8
2016-04-05T04:36:01.927Z,8
2016-04-05T04:37:01.900Z,12
2016-04-05T04:38:01.886Z,12
2016-04-05T04:39:01.873Z,16
2016-04-05T04:40:01.829Z,16
2016-04-05T04:41:01.816Z,20
2016-04-05T04:42:01.788Z,24
2016-04-05T04:43:01.759Z,32
2016-04-05T04:44:01.746Z,36
2016-04-05T04:45:01.733Z,44
2016-04-05T04:46:01.705Z,48
2016-04-05T04:47:01.677Z,60
2016-04-05T04:48:01.663Z,64
2016-04-05T04:49:01.650Z,80
2016-04-05T04:50:01.621Z,88
2016-04-05T04:51:01.593Z,100
2016-04-05T04:52:01.580Z,112
2016-04-05T04:53:01.551Z,120
2016-04-05T04:54:01.539Z,132
2016-04-05T04:55:01.526Z,144
2016-04-05T04:56:01.528Z,156
2016-04-05T04:57:01.469Z,160
2016-04-05T04:58:01.471Z,168
2016-04-05T04:59:01.459Z,176
2016-04-05T05:00:01.445Z,180
2016-04-05T05:01:01.385Z,192
2016-04-05T05:02:01.373Z,208
2016-04-05T05:03:01.359Z,232
2016-04-05T05:04:01.331Z,260
2016-04-05T05:05:01.318Z,292
2016-04-05T05:06:01.273Z,324
2016-04-05T05:07:01.261Z,360
2016-04-05T05:08:01.248Z,392
2016-04-05T05:09:01.220Z,420
2016-04-05T05:10:01.206Z,444
2016-04-05T05:11:01.178Z,444
2016-04-05T05:12:01.165Z,428
2016-04-05T05:13:01.136Z,408
2016-04-05T05:14:01.108Z,404
2016-04-05T05:15:01.095Z,432
2016-04-05T05:16:01.083Z,476
2016-04-05T05:17:01.053Z,492
2016-04-05T05:18:01.024Z,480
2016-04-05T05:19:01.028Z,468
2016-04-05T05:20:00.999Z,476
2016-04-05T05:21:00.985Z,520
2016-04-05T05:22:00.958Z,592
2016-04-05T05:23:00.929Z,700
2016-04-05T05:24:00.916Z,840
2016-04-05T05:25:00.888Z,1004
2016-04-05T05:26:00.874Z,1208
2016-04-05T05:27:00.830Z,1416
2016-04-05T05:28:00.818Z,1604
2016-04-05T05:29:00.805Z,1748
2016-04-05T05:30:00.776Z,1824
2016-04-05T05:31:00.763Z,1824
2016-04-05T05:32:00.734Z,1736
2016-04-05T05:33:00.721Z,1608
2016-04-05T05:34:00.693Z,1592
2016-04-05T05:35:00.680Z,1704
2016-04-05T05:36:00.651Z,1916
2016-04-05T05:37:00.639Z,2168
2016-04-05T05:38:00.625Z,2372
2016-04-05T05:39:00.598Z,2532
2016-04-05T05:40:00.584Z,2648
2016-04-05T05:41:00.539Z,2728
2016-04-05T05:42:00.543Z,2796
2016-04-05T05:43:00.514Z,2864
2016-04-05T05:44:00.486Z,2904
2016-04-05T05:45:00.473Z,2948
2016-04-05T05:46:00.444Z,3000
2016-04-05T05:47:00.431Z,3028
2016-04-05T05:48:00.402Z,3016
2016-04-05T05:49:00.389Z,2984
2016-04-05T05:50:00.360Z,2952
2016-04-05T05:51:00.191Z,2988
2016-04-05T05:52:00.335Z,3088
2016-04-05T05:53:00.307Z,3184
2016-04-05T05:54:00.294Z,3292
2016-04-05T05:55:00.265Z,3396
2016-04-05T05:56:00.237Z,3504
2016-04-05T05:57:00.208Z,3608
2016-04-05T05:58:00.210Z,3740
2016-04-05T05:59:00.182Z,3880
2016-04-05T06:00:00.169Z,4020
2016-04-05T06:01:00.141Z,4172
2016-04-05T06:02:00.128Z,4284
2016-04-05T06:03:00.098Z,4376
2016-04-05T06:04:00.087Z,4412
2016-04-05T06:05:00.057Z,4412
2016-04-05T06:06:00.044Z,4424
2016-04-05T06:07:00.032Z,4448
2016-04-05T06:08:00.003Z,4492
2016-04-05T06:08:59.975Z,4536
2016-04-05T06:09:59.978Z,4596
2016-04-05T06:10:59.948Z,4656
2016-04-05T06:11:59.936Z,4728
2016-04-05T06:12:59.923Z,4812
2016-04-05T06:13:59.894Z,4944
2016-04-05T06:14:59.850Z,5072
2016-04-05T06:15:59.837Z,5160
2016-04-05T06:16:59.824Z,5280
2016-04-05T06:17:59.811Z,5460
2016-04-05T06:18:59.783Z,5576
2016-04-05T06:19:59.769Z,5660
2016-04-05T06:20:59.757Z,5772
2016-04-05T06:21:59.713Z,5852
2016-04-05T06:22:59.700Z,5824
2016-04-05T06:23:59.688Z,5716
2016-04-05T06:24:59.658Z,5632
2016-04-05T06:25:59.660Z,5688
2016-04-05T06:26:59.649Z,5800
2016-04-05T06:27:59.604Z,5888
2016-04-05T06:28:59.590Z,5936
2016-04-05T06:29:59.594Z,5996
2016-04-05T06:30:59.549Z,6100
2016-04-05T06:31:59.537Z,6156
2016-04-05T06:32:59.523Z,5980
2016-04-05T06:33:59.479Z,5584
2016-04-05T06:34:59.467Z,5324
2016-04-05T06:35:59.453Z,5364
2016-04-05T06:36:59.440Z,5548
2016-04-05T06:37:59.443Z,5756
2016-04-05T06:38:59.415Z,5936
2016-04-05T06:39:59.386Z,5988
2016-04-05T06:40:59.358Z,5952
2016-04-05T06:41:59.345Z,6124
2016-04-05T06:42:59.331Z,6364
2016-04-05T06:43:59.319Z,6412
2016-04-05T06:44:59.306Z,6232
2016-04-05T06:45:59.262Z,6072
2016-04-05T06:46:59.249Z,5928
2016-04-05T06:47:59.235Z,5688
2016-04-05T06:48:59.208Z,5360
2016-04-05T06:49:59.194Z,5076
2016-04-05T06:50:59.166Z,4708
2016-04-05T06:51:59.153Z,4396
2016-04-05T06:52:59.171Z,4360
2016-04-05T06:53:58.955Z,4688
2016-04-05T06:54:59.083Z,5052
2016-04-05T06:55:59.085Z,5296
2016-04-05T06:56:59.354Z,5496
2016-04-05T06:57:59.044Z,5672
2016-04-05T06:58:58.999Z,5780
2016-04-05T06:59:58.987Z,5700
2016-04-05T07:00:58.990Z,5672
2016-04-05T07:01:58.960Z,5732
2016-04-05T07:02:58.963Z,5700
2016-04-05T07:03:58.935Z,5600
2016-04-05T07:04:58.922Z,5660
2016-04-05T07:05:58.893Z,5840
2016-04-05T07:06:58.881Z,5988
2016-04-05T07:07:58.900Z,6068
2016-04-05T07:08:58.669Z,6080
2016-04-05T07:09:58.828Z,6092
2016-04-05T07:10:58.814Z,6336
2016-04-05T07:11:58.786Z,6636
2016-04-05T07:12:58.758Z,6972
2016-04-05T07:13:58.761Z,7440
2016-04-05T07:14:58.732Z,7916
2016-04-05T07:15:58.703Z,8208
2016-04-05T07:16:58.691Z,8488
2016-04-05T07:17:58.678Z,8440
2016-04-05T07:18:58.665Z,7852
2016-04-05T07:19:58.636Z,6996
2016-04-05T07:20:58.624Z,6100
2016-04-05T07:21:58.626Z,5516
2016-04-05T07:22:58.582Z,5708
2016-04-05T07:23:58.554Z,6568
2016-04-05T07:24:58.540Z,7260
2016-04-05T07:25:58.527Z,7220
2016-04-05T07:26:58.576Z,6972
2016-04-05T07:27:58.470Z,6716
2016-04-05T07:28:58.454Z,6780
2016-04-05T07:29:58.442Z,7352
2016-04-05T07:30:58.428Z,8588
2016-04-05T07:31:58.416Z,9632
2016-04-05T07:32:58.387Z,9728
2016-04-05T07:33:58.389Z,9184
2016-04-05T07:34:58.345Z,8804
2016-04-05T07:35:58.333Z,8676
2016-04-05T07:36:58.320Z,8848
2016-04-05T07:37:58.306Z,9944
2016-04-05T07:38:58.295Z,11308
2016-04-05T07:39:58.281Z,11776
2016-04-05T07:40:58.252Z,11068
2016-04-05T07:41:58.224Z,10020
2016-04-05T07:42:58.211Z,9492
2016-04-05T07:43:58.198Z,9760
2016-04-05T07:44:58.169Z,10112
2016-04-05T07:45:58.156Z,9976
2016-04-05T07:46:58.144Z,9844
2016-04-05T07:47:58.193Z,9876
2016-04-05T07:48:58.196Z,10240
2016-04-05T07:49:58.152Z,10160
2016-04-05T07:50:58.077Z,10148
2016-04-05T07:51:58.094Z,10940
2016-04-05T07:52:58.035Z,11596
2016-04-05T07:53:58.069Z,11380
2016-04-05T07:54:58.024Z,11036
2016-04-05T07:55:57.980Z,11088
2016-04-05T07:56:57.968Z,10772
2016-04-05T07:57:57.970Z,10780
2016-04-05T07:58:57.926Z,10716
2016-04-05T07:59:57.913Z,9708
2016-04-05T08:00:57.884Z,9192
2016-04-05T08:01:57.903Z,8948
2016-04-05T08:02:57.889Z,8416
2016-04-05T08:03:57.846Z,7892
2016-04-05T08:04:57.832Z,6888
2016-04-05T08:05:57.804Z,5876
2016-04-05T08:06:57.792Z,5248
2016-04-05T08:07:57.778Z,4812
2016-04-05T08:08:57.750Z,4636
2016-04-05T08:09:57.737Z,4260
2016-04-05T08:10:57.739Z,4444
2016-04-05T08:11:57.711Z,5584
2016-04-05T08:12:57.697Z,6208
2016-04-05T08:13:57.670Z,6116
2016-04-05T08:14:57.656Z,5928
2016-04-05T08:15:57.628Z,6332
2016-04-05T08:16:58.677Z,5756
2016-04-05T08:17:57.571Z,5364
2016-04-05T08:18:57.589Z,7116
2016-04-05T08:19:57.607Z,9000
2016-04-05T08:20:57.548Z,9400
2016-04-05T08:21:57.535Z,8148
2016-04-05T08:22:57.505Z,6800
2016-04-05T08:23:57.508Z,6536
2016-04-05T08:24:57.464Z,6044
2016-04-05T08:25:57.468Z,5364
2016-04-05T08:26:58.016Z,5376
2016-04-05T08:27:57.535Z,5768
2016-04-05T08:28:57.397Z,5476
2016-04-05T08:29:57.368Z,5332
2016-04-05T08:30:57.371Z,6244
2016-04-05T08:31:57.359Z,7736
2016-04-05T08:32:57.314Z,8688
2016-04-05T08:33:57.317Z,9116
2016-04-05T08:34:57.288Z,9708
2016-04-05T08:35:57.276Z,9624
2016-04-05T08:36:57.262Z,8716
2016-04-05T08:37:57.250Z,7184
2016-04-05T08:38:57.220Z,5748
2016-04-05T08:39:57.192Z,4740
2016-04-05T08:40:57.179Z,4212
2016-04-05T08:41:57.181Z,4584
2016-04-05T08:42:57.139Z,5288
2016-04-05T08:43:57.125Z,5884
2016-04-05T08:44:57.127Z,7236
2016-04-05T08:45:57.083Z,8860
2016-04-05T08:46:57.070Z,10288
2016-04-05T08:47:57.058Z,11524
2016-04-05T08:48:57.029Z,12952
2016-04-05T08:49:57.033Z,14160
2016-04-05T08:50:57.003Z,14776
2016-04-05T08:51:56.974Z,15144
2016-04-05T08:52:56.977Z,15868
2016-04-05T08:53:56.948Z,16648
2016-04-05T08:54:56.921Z,17696
2016-04-05T08:55:56.907Z,18688
2016-04-05T08:56:56.894Z,19232
2016-04-05T08:57:56.866Z,19520
2016-04-05T08:58:56.852Z,19680
2016-04-05T08:59:56.840Z,20000
2016-04-05T09:00:56.921Z,20416
2016-04-05T09:01:56.798Z,20800
2016-04-05T09:02:56.801Z,21312
2016-04-05T09:03:56.773Z,21760
2016-04-05T09:04:56.604Z,22240
2016-04-05T09:05:56.575Z,22784
2016-04-05T09:06:56.718Z,22784
2016-04-05T09:07:56.705Z,22752
2016-04-05T09:08:56.692Z,23232
2016-04-05T09:09:56.669Z,23712
2016-04-05T09:10:56.655Z,23392
2016-04-05T09:11:56.643Z,22208
2016-04-05T09:12:56.630Z,21536
2016-04-05T09:13:56.601Z,21888
2016-04-05T09:14:56.588Z,23168
2016-04-05T09:15:56.653Z,24928
2016-04-05T09:16:56.547Z,26816
2016-04-05T09:17:56.533Z,28096
2016-04-05T09:18:56.536Z,27360
2016-04-05T09:19:56.524Z,24672
2016-04-05T09:20:56.511Z,21280
2016-04-05T09:21:56.482Z,18688
2016-04-05T09:22:56.454Z,16760
2016-04-05T09:23:56.457Z,16096
2016-04-05T09:24:56.427Z,15952
2016-04-05T09:25:56.430Z,17856
2016-04-05T09:26:56.401Z,20384
2016-04-05T09:27:56.483Z,21792
2016-04-05T09:28:56.376Z,22976
2016-04-05T09:29:56.363Z,23712
2016-04-05T09:30:56.365Z,22176
2016-04-05T09:31:56.337Z,23136
2016-04-05T09:32:56.324Z,24640
2016-04-05T09:33:56.295Z,24992
2016-04-05T09:34:56.267Z,24576
2016-04-05T09:35:56.270Z,25088
2016-04-05T09:36:56.242Z,24832
2016-04-05T09:37:56.245Z,23872
2016-04-05T09:38:56.215Z,23552
2016-04-05T09:39:56.218Z,21984
2016-04-05T09:40:56.189Z,18944
2016-04-05T09:41:56.176Z,18432
2016-04-05T09:42:56.163Z,22400
2016-04-05T09:43:56.136Z,23648
2016-04-05T09:44:56.138Z,24128
2016-04-05T09:45:56.015Z,24288
2016-04-05T09:46:56.111Z,25632
2016-04-05T09:47:56.083Z,24480
2016-04-05T09:48:56.069Z,23872
2016-04-05T09:49:56.057Z,22880
2016-04-05T09:50:56.108Z,25920
2016-04-05T09:51:56.047Z,27648
2016-04-05T09:52:56.002Z,27008
2016-04-05T09:53:56.006Z,24576
2016-04-05T09:54:55.993Z,24256
2016-04-05T09:55:55.964Z,25088
2016-04-05T09:56:55.966Z,24128
2016-04-05T09:57:56.048Z,23392
2016-04-05T09:58:55.941Z,19552
2016-04-05T09:59:55.912Z,16832
2016-04-05T10:00:55.899Z,16980
2016-04-05T10:01:55.964Z,20096
2016-04-05T10:02:56.015Z,20736
2016-04-05T10:03:55.860Z,17268
2016-04-05T10:04:55.863Z,16688
2016-04-05T10:05:55.834Z,17624
2016-04-05T10:06:55.853Z,17604
2016-04-05T10:07:55.792Z,18688
2016-04-05T10:08:55.811Z,19008
2016-04-05T10:09:55.767Z,21152
2016-04-05T10:10:55.863Z,18624
2016-04-05T10:11:55.741Z,15224
2016-04-05T10:12:55.728Z,12788
2016-04-05T10:13:55.716Z,12164
2016-04-05T10:14:55.812Z,14924
2016-04-05T10:15:55.815Z,18528
2016-04-05T10:16:55.677Z,21248
2016-04-05T10:17:55.648Z,22496
2016-04-05T10:18:55.636Z,22720
2016-04-05T10:19:55.622Z,23296
2016-04-05T10:20:55.610Z,21632
2016-04-05T10:21:55.596Z,18880
2016-04-05T10:22:55.583Z,18464
2016-04-05T10:23:55.555Z,19808
2016-04-05T10:24:55.541Z,19232
2016-04-05T10:25:55.530Z,16460
2016-04-05T10:26:55.516Z,14380
2016-04-05T10:27:55.519Z,13924
2016-04-05T10:28:55.538Z,13212
2016-04-05T10:29:55.462Z,10652
2016-04-05T10:30:55.449Z,7452
2016-04-05T10:31:55.435Z,8628
2016-04-05T10:32:55.423Z,12412
2016-04-05T10:33:55.410Z,10628
2016-04-05T10:34:55.398Z,10476
2016-04-05T10:35:55.368Z,19040
2016-04-05T10:36:55.371Z,19264
2016-04-05T10:37:55.342Z,11996
2016-04-05T10:38:55.329Z,8000
2016-04-05T10:39:55.317Z,9268
2016-04-05T10:40:55.303Z,10836
2016-04-05T10:41:55.291Z,8992
2016-04-05T10:42:55.262Z,7780
2016-04-05T10:43:55.264Z,8904
2016-04-05T10:44:55.237Z,8264
2016-04-05T10:45:55.239Z,7248
2016-04-05T10:46:55.211Z,6596
2016-04-05T10:47:55.182Z,6348
2016-04-05T10:48:55.169Z,6432
2016-04-05T10:49:55.141Z,7588
2016-04-05T10:50:55.190Z,9168
2016-04-05T10:51:55.099Z,8920
2016-04-05T10:52:55.086Z,8572
2016-04-05T10:53:55.073Z,9188
2016-04-05T10:54:55.060Z,9540
2016-04-05T10:55:55.156Z,9472
2016-04-05T10:56:55.019Z,8584
2016-04-05T10:57:54.990Z,6904
2016-04-05T10:58:54.977Z,5952
2016-04-05T10:59:54.965Z,6000
2016-04-05T11:00:54.952Z,6028
2016-04-05T11:01:54.923Z,6876
2016-04-05T11:02:54.910Z,7292
2016-04-05T11:03:54.881Z,6816
2016-04-05T11:04:54.869Z,6660
2016-04-05T11:05:54.856Z,6716
2016-04-05T11:06:54.827Z,9488
2016-04-05T11:07:54.817Z,13536
2016-04-05T11:08:54.783Z,16700
2016-04-05T11:09:54.771Z,17652
2016-04-05T11:10:54.742Z,18400
2016-04-05T11:11:54.729Z,18848
2016-04-05T11:12:54.700Z,20064
2016-04-05T11:13:54.765Z,22304
2016-04-05T11:14:54.675Z,21888
2016-04-05T11:15:54.646Z,24032
2016-04-05T11:16:54.634Z,22112
2016-04-05T11:17:54.667Z,25280
2016-04-05T11:18:54.592Z,22144
2016-04-05T11:19:54.564Z,21536
2016-04-05T11:20:54.628Z,21184
2016-04-05T11:21:54.537Z,22624
2016-04-05T11:22:54.509Z,21120
2016-04-05T11:23:54.496Z,21088
2016-04-05T11:24:54.498Z,22464
2016-04-05T11:25:54.469Z,19616
2016-04-05T11:26:54.582Z,16188
2016-04-05T11:27:54.413Z,16872
2016-04-05T11:28:54.416Z,16592
2016-04-05T11:29:54.372Z,18208
2016-04-05T11:30:54.389Z,15192
2016-04-05T11:31:54.361Z,13204
2016-04-05T11:32:54.333Z,13320
2016-04-05T11:33:54.304Z,13840
2016-04-05T11:34:54.291Z,13892
2016-04-05T11:35:54.294Z,11268
2016-04-05T11:36:54.437Z,10736
2016-04-05T11:37:54.252Z,11044
2016-04-05T11:38:54.410Z,9652
2016-04-05T11:39:54.195Z,9040
2016-04-05T11:40:54.182Z,10140
2016-04-05T11:41:54.168Z,11028
2016-04-05T11:42:54.156Z,10804
2016-04-05T11:43:54.127Z,10600
2016-04-05T11:44:54.114Z,9064
2016-04-05T11:45:54.101Z,7552
2016-04-05T11:46:54.088Z,6064
2016-04-05T11:47:54.060Z,4272
2016-04-05T11:48:54.031Z,3636
2016-04-05T11:49:54.019Z,3728
2016-04-05T11:50:54.005Z,4000
2016-04-05T11:51:53.990Z,6460
2016-04-05T11:52:53.970Z,6960
2016-04-05T11:53:53.931Z,6804
2016-04-05T11:54:53.894Z,7432
2016-04-05T11:55:53.904Z,7196
2016-04-05T11:56:53.836Z,8752
2016-04-05T11:57:53.805Z,11548
2016-04-05T11:58:53.632Z,14660
2016-04-05T11:59:53.772Z,16896
2016-04-05T12:00:53.757Z,17552
2016-04-05T12:01:54.022Z,17072
2016-04-05T12:02:53.711Z,16740
2016-04-05T12:03:53.698Z,16824
2016-04-05T12:04:53.667Z,16872
2016-04-05T12:05:53.668Z,16164
2016-04-05T12:06:53.625Z,15336
2016-04-05T12:07:53.611Z,14748
2016-04-05T12:08:53.582Z,14584
2016-04-05T12:09:53.568Z,15096
2016-04-05T12:10:53.570Z,16168
2016-04-05T12:11:53.526Z,17160
2016-04-05T12:12:53.514Z,18688
2016-04-05T12:13:53.500Z,19040
2016-04-05T12:14:53.472Z,17792
2016-04-05T12:15:53.459Z,14884
2016-04-05T12:16:53.430Z,13100
2016-04-05T12:17:53.417Z,11912
2016-04-05T12:18:53.233Z,11580
2016-04-05T12:19:53.392Z,14808
2016-04-05T12:20:53.363Z,21376
2016-04-05T12:21:53.334Z,21696
2016-04-05T12:22:53.321Z,19584
2016-04-05T12:23:53.293Z,20032
2016-04-05T12:24:53.280Z,20096
2016-04-05T12:25:53.267Z,21920
2016-04-05T12:26:53.238Z,20640
2016-04-05T12:27:53.225Z,17484
2016-04-05T12:28:53.212Z,15660
2016-04-05T12:29:53.185Z,15300
2016-04-05T12:30:53.171Z,15172
2016-04-05T12:31:53.158Z,14312
2016-04-05T12:32:53.129Z,13544
2016-04-05T12:33:53.116Z,11348
2016-04-05T12:34:53.087Z,10360
2016-04-05T12:35:53.075Z,10632
2016-04-05T12:36:53.062Z,14940
2016-04-05T12:37:53.049Z,19680
2016-04-05T12:38:53.021Z,24096
2016-04-05T12:39:53.008Z,25664
2016-04-05T12:40:52.979Z,24736
2016-04-05T12:41:52.966Z,24192
2016-04-05T12:42:52.953Z,25504
2016-04-05T12:43:52.784Z,27328
2016-04-05T12:44:52.912Z,27520
2016-04-05T12:45:52.915Z,26816
2016-04-05T12:46:52.886Z,24320
2016-04-05T12:47:52.872Z,19936
2016-04-05T12:48:52.861Z,14640
2016-04-05T12:49:52.817Z,10296
2016-04-05T12:50:52.819Z,7224
2016-04-05T12:51:52.806Z,4204
2016-04-05T12:52:52.778Z,2980
2016-04-05T12:53:52.764Z,2568
2016-04-05T12:54:52.736Z,2524
2016-04-05T12:55:52.738Z,3216
2016-04-05T12:56:52.710Z,4568
2016-04-05T12:57:52.696Z,6592
2016-04-05T12:58:52.669Z,8760
2016-04-05T12:59:52.640Z,10204
2016-04-05T13:00:52.626Z,11204
2016-04-05T13:01:52.785Z,12336
2016-04-05T13:02:52.585Z,13328
2016-04-05T13:03:52.556Z,13684
2016-04-05T13:04:52.559Z,13360
2016-04-05T13:05:52.531Z,13708
2016-04-05T13:06:52.548Z,14556
2016-04-05T13:07:52.489Z,14604
2016-04-05T13:08:52.477Z,14088
2016-04-05T13:09:52.495Z,14232
2016-04-05T13:10:52.435Z,15264
2016-04-05T13:11:52.422Z,16604
2016-04-05T13:12:52.409Z,17984
2016-04-05T13:13:52.365Z,19392
2016-04-05T13:14:52.352Z,20064
2016-04-05T13:15:52.354Z,19936
2016-04-05T13:16:52.450Z,19520
2016-04-05T13:17:52.298Z,19616
2016-04-05T13:18:52.112Z,19968
2016-04-05T13:19:52.256Z,20544
2016-04-05T13:20:52.227Z,20064
2016-04-05T13:21:52.214Z,18944
2016-04-05T13:22:52.202Z,18112
2016-04-05T13:23:52.173Z,16856
2016-04-05T13:24:52.160Z,16568
2016-04-05T13:25:52.131Z,16088
2016-04-05T13:26:52.118Z,15552
2016-04-05T13:27:52.091Z,15432
2016-04-05T13:28:52.077Z,15380
2016-04-05T13:29:52.063Z,15460
2016-04-05T13:30:52.035Z,14692
2016-04-05T13:31:52.069Z,12228
2016-04-05T13:32:52.010Z,10100
2016-04-05T13:33:51.982Z,8692
2016-04-05T13:34:51.968Z,7564
2016-04-05T13:35:51.971Z,6768
2016-04-05T13:36:51.927Z,8368
2016-04-05T13:37:51.898Z,9416
2016-04-05T13:38:51.885Z,8232